sensor_id;sensor_type;location;lat;lon;timestamp;P1;durP1;ratioP1;P2;durP2;ratioP2
47161;SDS011;32921;53.256;8.198;2023-08-06T00:00:07;17.33;;;12.50;;
47161;SDS011;32921;53.256;8.198;2023-08-06T00:02:33;19.63;;;12.23;;
47161;SDS011;32921;53.256;8.198;2023-08-06T00:04:59;18.88;;;13.48;;
47161;SDS011;32921;53.256;8.198;2023-08-06T00:07:25;18.67;;;14.15;;
47161;SDS011;32921;53.256;8.198;2023-08-06T00:09:51;21.63;;;14.38;;
47161;SDS011;32921;53.256;8.198;2023-08-06T00:12:17;19.15;;;13.27;;
47161;SDS011;32921;53.256;8.198;2023-08-06T00:14:43;21.30;;;13.38;;
47161;SDS011;32921;53.256;8.198;2023-08-06T00:17:09;22.73;;;14.32;;
47161;SDS011;32921;53.256;8.198;2023-08-06T00:19:35;17.75;;;12.95;;
47161;SDS011;32921;53.256;8.198;2023-08-06T00:22:01;17.60;;;12.68;;
47161;SDS011;32921;53.256;8.198;2023-08-06T00:24:27;14.23;;;11.20;;
47161;SDS011;32921;53.256;8.198;2023-08-06T00:26:53;14.82;;;11.43;;
47161;SDS011;32921;53.256;8.198;2023-08-06T00:29:19;15.10;;;10.95;;
47161;SDS011;32921;53.256;8.198;2023-08-06T00:31:45;19.92;;;11.73;;
47161;SDS011;32921;53.256;8.198;2023-08-06T00:34:11;21.48;;;11.93;;
47161;SDS011;32921;53.256;8.198;2023-08-06T00:36:37;13.40;;;10.57;;
47161;SDS011;32921;53.256;8.198;2023-08-06T00:39:03;13.40;;;10.27;;
47161;SDS011;32921;53.256;8.198;2023-08-06T00:41:29;18.27;;;10.00;;
47161;SDS011;32921;53.256;8.198;2023-08-06T00:43:55;13.55;;;9.40;;
47161;SDS011;32921;53.256;8.198;2023-08-06T00:46:21;14.15;;;10.02;;
47161;SDS011;32921;53.256;8.198;2023-08-06T00:48:47;14.18;;;8.50;;
47161;SDS011;32921;53.256;8.198;2023-08-06T00:51:13;15.07;;;9.60;;
47161;SDS011;32921;53.256;8.198;2023-08-06T00:53:40;13.30;;;8.65;;
47161;SDS011;32921;53.256;8.198;2023-08-06T00:56:06;14.38;;;8.50;;
47161;SDS011;32921;53.256;8.198;2023-08-06T00:58:32;12.85;;;7.88;;
47161;SDS011;32921;53.256;8.198;2023-08-06T01:00:58;9.60;;;7.63;;
47161;SDS011;32921;53.256;8.198;2023-08-06T01:03:24;10.43;;;7.00;;
47161;SDS011;32921;53.256;8.198;2023-08-06T01:05:50;10.90;;;8.15;;
47161;SDS011;32921;53.256;8.198;2023-08-06T01:13:24;10.85;;;8.15;;
47161;SDS011;32921;53.256;8.198;2023-08-06T01:15:54;11.55;;;7.35;;
47161;SDS011;32921;53.256;8.198;2023-08-06T01:20:50;11.45;;;8.65;;
47161;SDS011;32921;53.256;8.198;2023-08-06T01:23:16;13.93;;;9.88;;
47161;SDS011;32921;53.256;8.198;2023-08-06T01:28:11;13.98;;;9.73;;
47161;SDS011;32921;53.256;8.198;2023-08-06T01:30:41;17.98;;;10.80;;
47161;SDS011;32921;53.256;8.198;2023-08-06T01:33:07;14.80;;;10.13;;
47161;SDS011;32921;53.256;8.198;2023-08-06T01:35:35;15.02;;;9.93;;
47161;SDS011;32921;53.256;8.198;2023-08-06T01:38:01;15.00;;;9.73;;
47161;SDS011;32921;53.256;8.198;2023-08-06T01:40:28;15.95;;;10.23;;
47161;SDS011;32921;53.256;8.198;2023-08-06T01:42:54;21.92;;;10.43;;
47161;SDS011;32921;53.256;8.198;2023-08-06T01:45:20;14.32;;;10.25;;
47161;SDS011;32921;53.256;8.198;2023-08-06T01:47:46;15.98;;;9.57;;
47161;SDS011;32921;53.256;8.198;2023-08-06T01:50:12;16.85;;;11.23;;
47161;SDS011;32921;53.256;8.198;2023-08-06T01:52:38;15.02;;;10.23;;
47161;SDS011;32921;53.256;8.198;2023-08-06T01:55:04;16.65;;;11.02;;
47161;SDS011;32921;53.256;8.198;2023-08-06T01:57:30;19.73;;;12.90;;
47161;SDS011;32921;53.256;8.198;2023-08-06T01:59:56;16.63;;;11.43;;
47161;SDS011;32921;53.256;8.198;2023-08-06T02:02:22;16.05;;;11.40;;
47161;SDS011;32921;53.256;8.198;2023-08-06T02:04:48;13.75;;;10.57;;
47161;SDS011;32921;53.256;8.198;2023-08-06T02:07:14;19.85;;;12.60;;
47161;SDS011;32921;53.256;8.198;2023-08-06T02:09:40;19.17;;;13.00;;
47161;SDS011;32921;53.256;8.198;2023-08-06T02:12:06;19.60;;;13.18;;
47161;SDS011;32921;53.256;8.198;2023-08-06T02:14:33;19.88;;;13.48;;
47161;SDS011;32921;53.256;8.198;2023-08-06T02:16:59;19.67;;;13.65;;
47161;SDS011;32921;53.256;8.198;2023-08-06T02:19:25;19.42;;;13.23;;
47161;SDS011;32921;53.256;8.198;2023-08-06T02:21:51;19.23;;;13.25;;
47161;SDS011;32921;53.256;8.198;2023-08-06T02:24:17;18.17;;;12.07;;
47161;SDS011;32921;53.256;8.198;2023-08-06T02:26:43;21.20;;;14.65;;
47161;SDS011;32921;53.256;8.198;2023-08-06T02:29:09;21.05;;;13.63;;
47161;SDS011;32921;53.256;8.198;2023-08-06T02:31:35;21.05;;;13.40;;
47161;SDS011;32921;53.256;8.198;2023-08-06T02:34:01;19.55;;;14.43;;
47161;SDS011;32921;53.256;8.198;2023-08-06T02:36:27;25.20;;;15.40;;
47161;SDS011;32921;53.256;8.198;2023-08-06T02:38:54;23.80;;;16.33;;
47161;SDS011;32921;53.256;8.198;2023-08-06T02:41:20;26.27;;;15.00;;
47161;SDS011;32921;53.256;8.198;2023-08-06T02:43:46;19.17;;;14.60;;
47161;SDS011;32921;53.256;8.198;2023-08-06T02:46:12;22.85;;;15.18;;
47161;SDS011;32921;53.256;8.198;2023-08-06T02:48:38;22.15;;;15.32;;
47161;SDS011;32921;53.256;8.198;2023-08-06T02:51:04;26.15;;;16.25;;
47161;SDS011;32921;53.256;8.198;2023-08-06T02:53:30;24.13;;;15.73;;
47161;SDS011;32921;53.256;8.198;2023-08-06T02:55:56;23.98;;;15.55;;
47161;SDS011;32921;53.256;8.198;2023-08-06T02:58:23;22.48;;;14.80;;
47161;SDS011;32921;53.256;8.198;2023-08-06T03:01:00;25.27;;;15.52;;
47161;SDS011;32921;53.256;8.198;2023-08-06T03:03:26;22.02;;;15.52;;
47161;SDS011;32921;53.256;8.198;2023-08-06T03:05:53;26.10;;;16.42;;
47161;SDS011;32921;53.256;8.198;2023-08-06T03:08:19;21.27;;;15.25;;
47161;SDS011;32921;53.256;8.198;2023-08-06T03:10:47;22.75;;;16.02;;
47161;SDS011;32921;53.256;8.198;2023-08-06T03:13:13;23.05;;;15.80;;
47161;SDS011;32921;53.256;8.198;2023-08-06T03:15:39;24.27;;;16.92;;
47161;SDS011;32921;53.256;8.198;2023-08-06T03:18:05;26.35;;;16.27;;
47161;SDS011;32921;53.256;8.198;2023-08-06T03:20:34;28.13;;;17.42;;
47161;SDS011;32921;53.256;8.198;2023-08-06T03:23:00;26.58;;;18.38;;
47161;SDS011;32921;53.256;8.198;2023-08-06T03:25:26;32.45;;;19.35;;
47161;SDS011;32921;53.256;8.198;2023-08-06T03:27:52;26.52;;;16.52;;
47161;SDS011;32921;53.256;8.198;2023-08-06T03:30:18;26.65;;;17.42;;
47161;SDS011;32921;53.256;8.198;2023-08-06T03:32:44;27.13;;;17.60;;
47161;SDS011;32921;53.256;8.198;2023-08-06T03:35:09;26.05;;;17.27;;
47161;SDS011;32921;53.256;8.198;2023-08-06T03:37:35;27.00;;;16.95;;
47161;SDS011;32921;53.256;8.198;2023-08-06T03:40:01;30.60;;;17.85;;
47161;SDS011;32921;53.256;8.198;2023-08-06T03:42:28;23.85;;;16.55;;
47161;SDS011;32921;53.256;8.198;2023-08-06T03:44:54;28.30;;;17.42;;
47161;SDS011;32921;53.256;8.198;2023-08-06T03:47:19;30.95;;;19.05;;
47161;SDS011;32921;53.256;8.198;2023-08-06T03:49:45;31.17;;;19.13;;
47161;SDS011;32921;53.256;8.198;2023-08-06T03:52:11;37.58;;;20.08;;
47161;SDS011;32921;53.256;8.198;2023-08-06T03:54:37;28.25;;;19.67;;
47161;SDS011;32921;53.256;8.198;2023-08-06T03:57:04;35.72;;;20.88;;
47161;SDS011;32921;53.256;8.198;2023-08-06T03:59:30;38.45;;;21.30;;
47161;SDS011;32921;53.256;8.198;2023-08-06T04:01:56;32.05;;;20.73;;
47161;SDS011;32921;53.256;8.198;2023-08-06T04:04:22;38.75;;;24.20;;
47161;SDS011;32921;53.256;8.198;2023-08-06T04:06:48;41.67;;;23.48;;
47161;SDS011;32921;53.256;8.198;2023-08-06T04:09:14;38.33;;;23.30;;
47161;SDS011;32921;53.256;8.198;2023-08-06T04:11:40;44.25;;;24.25;;
47161;SDS011;32921;53.256;8.198;2023-08-06T04:14:06;46.45;;;24.52;;
47161;SDS011;32921;53.256;8.198;2023-08-06T04:16:31;36.75;;;22.08;;
47161;SDS011;32921;53.256;8.198;2023-08-06T04:18:57;40.00;;;22.70;;
47161;SDS011;32921;53.256;8.198;2023-08-06T04:21:24;30.55;;;19.38;;
47161;SDS011;32921;53.256;8.198;2023-08-06T04:23:50;29.65;;;17.63;;
47161;SDS011;32921;53.256;8.198;2023-08-06T04:26:15;23.85;;;15.18;;
47161;SDS011;32921;53.256;8.198;2023-08-06T04:28:41;23.08;;;15.88;;
47161;SDS011;32921;53.256;8.198;2023-08-06T04:31:07;22.40;;;14.35;;
47161;SDS011;32921;53.256;8.198;2023-08-06T04:33:33;20.05;;;12.35;;
47161;SDS011;32921;53.256;8.198;2023-08-06T04:35:59;24.83;;;14.18;;
47161;SDS011;32921;53.256;8.198;2023-08-06T04:38:26;19.58;;;12.13;;
47161;SDS011;32921;53.256;8.198;2023-08-06T04:40:52;16.98;;;11.18;;
47161;SDS011;32921;53.256;8.198;2023-08-06T04:43:18;18.58;;;11.18;;
47161;SDS011;32921;53.256;8.198;2023-08-06T04:45:50;23.15;;;12.88;;
47161;SDS011;32921;53.256;8.198;2023-08-06T04:48:17;18.10;;;10.75;;
47161;SDS011;32921;53.256;8.198;2023-08-06T04:50:43;24.17;;;13.10;;
47161;SDS011;32921;53.256;8.198;2023-08-06T04:53:09;17.20;;;11.38;;
47161;SDS011;32921;53.256;8.198;2023-08-06T04:55:36;17.85;;;11.10;;
47161;SDS011;32921;53.256;8.198;2023-08-06T04:58:02;16.48;;;11.35;;
47161;SDS011;32921;53.256;8.198;2023-08-06T05:00:28;20.60;;;12.48;;
47161;SDS011;32921;53.256;8.198;2023-08-06T05:02:54;17.15;;;11.68;;
47161;SDS011;32921;53.256;8.198;2023-08-06T05:05:19;15.65;;;10.73;;
47161;SDS011;32921;53.256;8.198;2023-08-06T05:07:47;16.55;;;11.60;;
47161;SDS011;32921;53.256;8.198;2023-08-06T05:10:14;18.92;;;12.10;;
47161;SDS011;32921;53.256;8.198;2023-08-06T05:12:40;19.05;;;12.68;;
47161;SDS011;32921;53.256;8.198;2023-08-06T05:15:06;15.98;;;11.30;;
47161;SDS011;32921;53.256;8.198;2023-08-06T05:17:32;18.05;;;12.30;;
47161;SDS011;32921;53.256;8.198;2023-08-06T05:19:58;19.90;;;11.98;;
47161;SDS011;32921;53.256;8.198;2023-08-06T05:22:24;19.02;;;12.45;;
47161;SDS011;32921;53.256;8.198;2023-08-06T05:24:51;19.15;;;11.80;;
47161;SDS011;32921;53.256;8.198;2023-08-06T05:27:17;20.15;;;12.45;;
47161;SDS011;32921;53.256;8.198;2023-08-06T05:29:44;16.73;;;12.05;;
47161;SDS011;32921;53.256;8.198;2023-08-06T05:32:10;16.52;;;11.82;;
47161;SDS011;32921;53.256;8.198;2023-08-06T05:34:36;18.00;;;12.18;;
47161;SDS011;32921;53.256;8.198;2023-08-06T05:37:02;20.23;;;12.85;;
47161;SDS011;32921;53.256;8.198;2023-08-06T05:39:28;17.85;;;11.52;;
47161;SDS011;32921;53.256;8.198;2023-08-06T05:41:54;16.23;;;11.02;;
47161;SDS011;32921;53.256;8.198;2023-08-06T05:44:21;17.52;;;11.80;;
47161;SDS011;32921;53.256;8.198;2023-08-06T05:46:47;20.38;;;12.85;;
47161;SDS011;32921;53.256;8.198;2023-08-06T05:49:13;16.95;;;12.20;;
47161;SDS011;32921;53.256;8.198;2023-08-06T05:51:39;20.20;;;13.35;;
47161;SDS011;32921;53.256;8.198;2023-08-06T05:54:05;15.82;;;12.05;;
47161;SDS011;32921;53.256;8.198;2023-08-06T05:56:31;17.10;;;12.93;;
47161;SDS011;32921;53.256;8.198;2023-08-06T05:58:57;18.27;;;12.88;;
47161;SDS011;32921;53.256;8.198;2023-08-06T06:01:23;18.35;;;13.18;;
47161;SDS011;32921;53.256;8.198;2023-08-06T06:03:49;17.38;;;11.80;;
47161;SDS011;32921;53.256;8.198;2023-08-06T06:06:15;15.02;;;13.30;;
47161;SDS011;32921;53.256;8.198;2023-08-06T06:08:42;13.65;;;11.85;;
47161;SDS011;32921;53.256;8.198;2023-08-06T06:11:08;15.63;;;11.85;;
47161;SDS011;32921;53.256;8.198;2023-08-06T06:13:34;15.68;;;13.73;;
47161;SDS011;32921;53.256;8.198;2023-08-06T06:16:00;18.45;;;15.48;;
47161;SDS011;32921;53.256;8.198;2023-08-06T06:18:26;19.60;;;16.15;;
47161;SDS011;32921;53.256;8.198;2023-08-06T06:20:52;19.70;;;15.63;;
47161;SDS011;32921;53.256;8.198;2023-08-06T06:23:18;21.63;;;16.23;;
47161;SDS011;32921;53.256;8.198;2023-08-06T06:25:47;27.08;;;18.75;;
47161;SDS011;32921;53.256;8.198;2023-08-06T06:28:14;21.02;;;18.30;;
47161;SDS011;32921;53.256;8.198;2023-08-06T06:30:40;25.67;;;17.70;;
47161;SDS011;32921;53.256;8.198;2023-08-06T06:33:06;25.88;;;18.67;;
47161;SDS011;32921;53.256;8.198;2023-08-06T06:35:32;21.92;;;19.52;;
47161;SDS011;32921;53.256;8.198;2023-08-06T06:37:58;25.42;;;20.63;;
47161;SDS011;32921;53.256;8.198;2023-08-06T06:40:25;26.60;;;23.45;;
47161;SDS011;32921;53.256;8.198;2023-08-06T06:42:51;25.90;;;22.30;;
47161;SDS011;32921;53.256;8.198;2023-08-06T06:45:17;26.00;;;23.13;;
47161;SDS011;32921;53.256;8.198;2023-08-06T06:47:43;24.70;;;21.85;;
47161;SDS011;32921;53.256;8.198;2023-08-06T06:50:09;24.27;;;20.90;;
47161;SDS011;32921;53.256;8.198;2023-08-06T06:52:35;26.08;;;23.15;;
47161;SDS011;32921;53.256;8.198;2023-08-06T06:55:01;25.75;;;23.00;;
47161;SDS011;32921;53.256;8.198;2023-08-06T06:57:27;26.02;;;23.35;;
47161;SDS011;32921;53.256;8.198;2023-08-06T06:59:53;28.40;;;25.20;;
47161;SDS011;32921;53.256;8.198;2023-08-06T07:02:19;27.55;;;24.65;;
47161;SDS011;32921;53.256;8.198;2023-08-06T07:04:44;28.05;;;25.05;;
47161;SDS011;32921;53.256;8.198;2023-08-06T07:07:10;28.63;;;25.73;;
47161;SDS011;32921;53.256;8.198;2023-08-06T07:09:36;29.05;;;26.05;;
47161;SDS011;32921;53.256;8.198;2023-08-06T07:12:02;26.20;;;23.58;;
47161;SDS011;32921;53.256;8.198;2023-08-06T07:14:29;25.80;;;22.70;;
47161;SDS011;32921;53.256;8.198;2023-08-06T07:16:54;27.08;;;24.20;;
47161;SDS011;32921;53.256;8.198;2023-08-06T07:19:20;25.35;;;22.92;;
47161;SDS011;32921;53.256;8.198;2023-08-06T07:21:46;26.88;;;24.15;;
47161;SDS011;32921;53.256;8.198;2023-08-06T07:24:12;24.67;;;22.27;;
47161;SDS011;32921;53.256;8.198;2023-08-06T07:26:38;23.95;;;21.48;;
47161;SDS011;32921;53.256;8.198;2023-08-06T07:29:04;21.40;;;19.33;;
47161;SDS011;32921;53.256;8.198;2023-08-06T07:31:30;21.67;;;19.40;;
47161;SDS011;32921;53.256;8.198;2023-08-06T07:33:56;22.95;;;20.63;;
47161;SDS011;32921;53.256;8.198;2023-08-06T07:36:22;21.00;;;18.90;;
47161;SDS011;32921;53.256;8.198;2023-08-06T07:38:48;21.60;;;19.50;;
47161;SDS011;32921;53.256;8.198;2023-08-06T07:41:20;18.50;;;16.60;;
47161;SDS011;32921;53.256;8.198;2023-08-06T07:43:46;20.50;;;18.33;;
47161;SDS011;32921;53.256;8.198;2023-08-06T07:46:12;17.42;;;15.73;;
47161;SDS011;32921;53.256;8.198;2023-08-06T07:48:38;17.23;;;15.52;;
47161;SDS011;32921;53.256;8.198;2023-08-06T07:51:04;18.20;;;16.42;;
47161;SDS011;32921;53.256;8.198;2023-08-06T07:53:30;17.77;;;16.08;;
47161;SDS011;32921;53.256;8.198;2023-08-06T07:55:56;16.83;;;15.05;;
47161;SDS011;32921;53.256;8.198;2023-08-06T07:58:23;17.35;;;15.75;;
47161;SDS011;32921;53.256;8.198;2023-08-06T08:00:49;16.80;;;14.75;;
47161;SDS011;32921;53.256;8.198;2023-08-06T08:03:15;16.58;;;15.00;;
47161;SDS011;32921;53.256;8.198;2023-08-06T08:05:42;16.67;;;14.98;;
47161;SDS011;32921;53.256;8.198;2023-08-06T08:08:08;14.90;;;13.50;;
47161;SDS011;32921;53.256;8.198;2023-08-06T08:10:34;15.13;;;13.73;;
47161;SDS011;32921;53.256;8.198;2023-08-06T08:13:01;17.58;;;15.75;;
47161;SDS011;32921;53.256;8.198;2023-08-06T08:15:28;18.50;;;16.65;;
47161;SDS011;32921;53.256;8.198;2023-08-06T08:17:54;17.17;;;15.48;;
47161;SDS011;32921;53.256;8.198;2023-08-06T08:20:20;18.75;;;15.25;;
47161;SDS011;32921;53.256;8.198;2023-08-06T08:22:46;15.50;;;14.00;;
47161;SDS011;32921;53.256;8.198;2023-08-06T08:25:12;17.45;;;15.63;;
47161;SDS011;32921;53.256;8.198;2023-08-06T08:27:38;16.98;;;14.57;;
47161;SDS011;32921;53.256;8.198;2023-08-06T08:30:05;15.50;;;13.90;;
47161;SDS011;32921;53.256;8.198;2023-08-06T08:32:31;20.83;;;12.70;;
47161;SDS011;32921;53.256;8.198;2023-08-06T08:34:57;13.70;;;12.40;;
47161;SDS011;32921;53.256;8.198;2023-08-06T08:37:23;13.88;;;11.73;;
47161;SDS011;32921;53.256;8.198;2023-08-06T08:39:49;22.02;;;11.30;;
47161;SDS011;32921;53.256;8.198;2023-08-06T08:42:15;12.98;;;11.65;;
47161;SDS011;32921;53.256;8.198;2023-08-06T08:44:44;13.07;;;10.80;;
47161;SDS011;32921;53.256;8.198;2023-08-06T08:47:11;11.98;;;9.05;;
47161;SDS011;32921;53.256;8.198;2023-08-06T08:49:37;9.68;;;7.95;;
47161;SDS011;32921;53.256;8.198;2023-08-06T08:52:03;10.38;;;8.40;;
47161;SDS011;32921;53.256;8.198;2023-08-06T08:54:35;9.50;;;7.40;;
47161;SDS011;32921;53.256;8.198;2023-08-06T08:57:02;9.10;;;8.20;;
47161;SDS011;32921;53.256;8.198;2023-08-06T08:59:28;8.95;;;8.05;;
47161;SDS011;32921;53.256;8.198;2023-08-06T09:01:54;8.30;;;7.50;;
47161;SDS011;32921;53.256;8.198;2023-08-06T09:04:20;8.88;;;7.97;;
47161;SDS011;32921;53.256;8.198;2023-08-06T09:06:48;9.30;;;7.78;;
47161;SDS011;32921;53.256;8.198;2023-08-06T09:09:26;9.02;;;8.13;;
47161;SDS011;32921;53.256;8.198;2023-08-06T09:11:52;9.45;;;7.45;;
47161;SDS011;32921;53.256;8.198;2023-08-06T09:14:21;9.13;;;6.40;;
47161;SDS011;32921;53.256;8.198;2023-08-06T09:16:47;9.38;;;6.65;;
47161;SDS011;32921;53.256;8.198;2023-08-06T09:19:14;6.70;;;6.00;;
47161;SDS011;32921;53.256;8.198;2023-08-06T09:21:43;5.90;;;5.30;;
47161;SDS011;32921;53.256;8.198;2023-08-06T09:26:36;9.27;;;4.70;;
47161;SDS011;32921;53.256;8.198;2023-08-06T09:29:03;7.30;;;5.95;;
47161;SDS011;32921;53.256;8.198;2023-08-06T09:31:40;6.00;;;5.40;;
47161;SDS011;32921;53.256;8.198;2023-08-06T09:34:10;6.15;;;4.70;;
47161;SDS011;32921;53.256;8.198;2023-08-06T09:36:41;4.38;;;3.92;;
47161;SDS011;32921;53.256;8.198;2023-08-06T09:39:13;4.80;;;3.45;;
47161;SDS011;32921;53.256;8.198;2023-08-06T09:41:40;3.83;;;3.00;;
47161;SDS011;32921;53.256;8.198;2023-08-06T09:44:11;3.85;;;2.75;;
47161;SDS011;32921;53.256;8.198;2023-08-06T09:46:41;8.73;;;2.88;;
47161;SDS011;32921;53.256;8.198;2023-08-06T09:49:07;4.10;;;2.63;;
47161;SDS011;32921;53.256;8.198;2023-08-06T09:51:34;3.72;;;2.35;;
47161;SDS011;32921;53.256;8.198;2023-08-06T09:54:00;3.00;;;2.03;;
47161;SDS011;32921;53.256;8.198;2023-08-06T09:56:27;2.65;;;1.80;;
47161;SDS011;32921;53.256;8.198;2023-08-06T09:58:54;1.88;;;1.45;;
47161;SDS011;32921;53.256;8.198;2023-08-06T10:01:21;2.65;;;1.55;;
47161;SDS011;32921;53.256;8.198;2023-08-06T10:03:47;2.60;;;1.45;;
47161;SDS011;32921;53.256;8.198;2023-08-06T10:06:15;2.78;;;1.40;;
47161;SDS011;32921;53.256;8.198;2023-08-06T10:08:41;3.13;;;1.73;;
47161;SDS011;32921;53.256;8.198;2023-08-06T10:11:07;1.80;;;1.30;;
47161;SDS011;32921;53.256;8.198;2023-08-06T10:13:33;2.05;;;1.00;;
47161;SDS011;32921;53.256;8.198;2023-08-06T10:16:00;2.05;;;1.25;;
47161;SDS011;32921;53.256;8.198;2023-08-06T10:18:28;4.15;;;1.20;;
47161;SDS011;32921;53.256;8.198;2023-08-06T10:20:54;1.77;;;1.30;;
47161;SDS011;32921;53.256;8.198;2023-08-06T10:23:20;1.45;;;1.10;;
47161;SDS011;32921;53.256;8.198;2023-08-06T10:25:58;1.92;;;1.50;;
47161;SDS011;32921;53.256;8.198;2023-08-06T10:28:31;2.00;;;1.35;;
47161;SDS011;32921;53.256;8.198;2023-08-06T10:31:00;1.95;;;1.10;;
47161;SDS011;32921;53.256;8.198;2023-08-06T10:33:28;3.47;;;1.63;;
47161;SDS011;32921;53.256;8.198;2023-08-06T10:36:06;2.92;;;1.50;;
47161;SDS011;32921;53.256;8.198;2023-08-06T10:38:34;3.10;;;1.50;;
47161;SDS011;32921;53.256;8.198;2023-08-06T10:41:02;3.03;;;1.55;;
47161;SDS011;32921;53.256;8.198;2023-08-06T10:43:35;2.00;;;1.40;;
47161;SDS011;32921;53.256;8.198;2023-08-06T10:46:03;4.25;;;1.73;;
47161;SDS011;32921;53.256;8.198;2023-08-06T10:48:35;2.05;;;1.42;;
47161;SDS011;32921;53.256;8.198;2023-08-06T10:51:01;2.90;;;1.52;;
47161;SDS011;32921;53.256;8.198;2023-08-06T10:53:28;2.60;;;1.40;;
47161;SDS011;32921;53.256;8.198;2023-08-06T10:55:54;3.45;;;1.65;;
47161;SDS011;32921;53.256;8.198;2023-08-06T10:58:20;3.13;;;1.50;;
47161;SDS011;32921;53.256;8.198;2023-08-06T11:00:46;3.28;;;1.73;;
47161;SDS011;32921;53.256;8.198;2023-08-06T11:03:12;2.55;;;1.63;;
47161;SDS011;32921;53.256;8.198;2023-08-06T11:05:41;3.47;;;1.90;;
47161;SDS011;32921;53.256;8.198;2023-08-06T11:08:07;3.97;;;2.15;;
47161;SDS011;32921;53.256;8.198;2023-08-06T11:10:33;4.15;;;2.50;;
47161;SDS011;32921;53.256;8.198;2023-08-06T11:13:03;2.97;;;2.03;;
47161;SDS011;32921;53.256;8.198;2023-08-06T11:15:29;3.75;;;2.30;;
47161;SDS011;32921;53.256;8.198;2023-08-06T11:17:55;3.75;;;1.92;;
47161;SDS011;32921;53.256;8.198;2023-08-06T11:20:21;5.25;;;2.05;;
47161;SDS011;32921;53.256;8.198;2023-08-06T11:22:47;3.33;;;1.70;;
47161;SDS011;32921;53.256;8.198;2023-08-06T11:25:13;3.65;;;1.80;;
47161;SDS011;32921;53.256;8.198;2023-08-06T11:27:39;4.00;;;1.88;;
47161;SDS011;32921;53.256;8.198;2023-08-06T11:30:04;3.00;;;1.70;;
47161;SDS011;32921;53.256;8.198;2023-08-06T11:32:30;3.65;;;1.60;;
47161;SDS011;32921;53.256;8.198;2023-08-06T11:34:57;3.33;;;1.55;;
47161;SDS011;32921;53.256;8.198;2023-08-06T11:37:23;4.15;;;1.90;;
47161;SDS011;32921;53.256;8.198;2023-08-06T11:39:50;3.30;;;1.80;;
47161;SDS011;32921;53.256;8.198;2023-08-06T11:42:16;3.53;;;1.60;;
47161;SDS011;32921;53.256;8.198;2023-08-06T11:44:41;2.75;;;1.23;;
47161;SDS011;32921;53.256;8.198;2023-08-06T11:47:11;4.38;;;1.90;;
47161;SDS011;32921;53.256;8.198;2023-08-06T11:49:48;3.20;;;1.70;;
47161;SDS011;32921;53.256;8.198;2023-08-06T11:55:00;2.28;;;1.33;;
47161;SDS011;32921;53.256;8.198;2023-08-06T11:57:35;2.55;;;1.83;;
47161;SDS011;32921;53.256;8.198;2023-08-06T12:00:04;2.28;;;1.40;;
47161;SDS011;32921;53.256;8.198;2023-08-06T12:02:39;2.88;;;1.55;;
47161;SDS011;32921;53.256;8.198;2023-08-06T12:05:13;3.20;;;1.58;;
47161;SDS011;32921;53.256;8.198;2023-08-06T12:07:46;4.50;;;1.80;;
47161;SDS011;32921;53.256;8.198;2023-08-06T12:10:21;3.42;;;1.90;;
47161;SDS011;32921;53.256;8.198;2023-08-06T12:12:49;3.00;;;1.73;;
47161;SDS011;32921;53.256;8.198;2023-08-06T12:15:15;4.00;;;1.80;;
47161;SDS011;32921;53.256;8.198;2023-08-06T12:17:41;2.78;;;1.70;;
47161;SDS011;32921;53.256;8.198;2023-08-06T12:20:06;3.42;;;1.70;;
47161;SDS011;32921;53.256;8.198;2023-08-06T12:22:33;4.03;;;1.70;;
47161;SDS011;32921;53.256;8.198;2023-08-06T12:25:03;2.75;;;1.50;;
47161;SDS011;32921;53.256;8.198;2023-08-06T12:27:39;3.20;;;1.67;;
47161;SDS011;32921;53.256;8.198;2023-08-06T12:30:09;6.15;;;1.75;;
47161;SDS011;32921;53.256;8.198;2023-08-06T12:32:35;4.35;;;1.63;;
47161;SDS011;32921;53.256;8.198;2023-08-06T12:35:02;3.72;;;1.80;;
47161;SDS011;32921;53.256;8.198;2023-08-06T12:37:28;4.15;;;1.63;;
47161;SDS011;32921;53.256;8.198;2023-08-06T12:39:54;3.92;;;1.70;;
47161;SDS011;32921;53.256;8.198;2023-08-06T12:42:19;3.90;;;1.70;;
47161;SDS011;32921;53.256;8.198;2023-08-06T12:44:45;4.72;;;1.90;;
47161;SDS011;32921;53.256;8.198;2023-08-06T12:47:11;3.58;;;1.75;;
47161;SDS011;32921;53.256;8.198;2023-08-06T12:49:36;4.68;;;1.83;;
47161;SDS011;32921;53.256;8.198;2023-08-06T12:52:02;3.75;;;2.05;;
47161;SDS011;32921;53.256;8.198;2023-08-06T12:54:30;4.55;;;1.73;;
47161;SDS011;32921;53.256;8.198;2023-08-06T12:57:01;5.63;;;1.88;;
47161;SDS011;32921;53.256;8.198;2023-08-06T12:59:27;3.35;;;1.98;;
47161;SDS011;32921;53.256;8.198;2023-08-06T13:01:52;3.72;;;1.90;;
47161;SDS011;32921;53.256;8.198;2023-08-06T13:04:18;3.50;;;2.00;;
47161;SDS011;32921;53.256;8.198;2023-08-06T13:06:44;3.85;;;1.60;;
47161;SDS011;32921;53.256;8.198;2023-08-06T13:09:09;4.07;;;2.00;;
47161;SDS011;32921;53.256;8.198;2023-08-06T13:11:35;4.05;;;1.92;;
47161;SDS011;32921;53.256;8.198;2023-08-06T13:14:07;3.70;;;2.00;;
47161;SDS011;32921;53.256;8.198;2023-08-06T13:19:00;3.90;;;2.05;;
47161;SDS011;32921;53.256;8.198;2023-08-06T13:21:36;3.88;;;2.10;;
47161;SDS011;32921;53.256;8.198;2023-08-06T13:24:24;3.40;;;1.90;;
47161;SDS011;32921;53.256;8.198;2023-08-06T13:26:49;5.03;;;2.20;;
47161;SDS011;32921;53.256;8.198;2023-08-06T13:29:15;4.63;;;2.30;;
47161;SDS011;32921;53.256;8.198;2023-08-06T13:31:40;8.15;;;2.92;;
47161;SDS011;32921;53.256;8.198;2023-08-06T13:34:06;4.95;;;1.90;;
47161;SDS011;32921;53.256;8.198;2023-08-06T13:36:32;5.85;;;2.03;;
47161;SDS011;32921;53.256;8.198;2023-08-06T13:38:57;3.28;;;1.98;;
47161;SDS011;32921;53.256;8.198;2023-08-06T13:41:23;4.28;;;2.08;;
47161;SDS011;32921;53.256;8.198;2023-08-06T13:43:48;6.45;;;2.50;;
47161;SDS011;32921;53.256;8.198;2023-08-06T13:46:15;8.35;;;2.40;;
47161;SDS011;32921;53.256;8.198;2023-08-06T13:48:44;4.90;;;2.20;;
47161;SDS011;32921;53.256;8.198;2023-08-06T13:51:11;4.93;;;2.40;;
47161;SDS011;32921;53.256;8.198;2023-08-06T13:53:38;5.30;;;2.42;;
47161;SDS011;32921;53.256;8.198;2023-08-06T13:56:04;3.85;;;2.10;;
47161;SDS011;32921;53.256;8.198;2023-08-06T13:58:31;3.85;;;1.90;;
47161;SDS011;32921;53.256;8.198;2023-08-06T14:00:57;6.13;;;2.20;;
47161;SDS011;32921;53.256;8.198;2023-08-06T14:03:23;3.60;;;2.05;;
47161;SDS011;32921;53.256;8.198;2023-08-06T14:05:48;3.95;;;2.30;;
47161;SDS011;32921;53.256;8.198;2023-08-06T14:08:14;6.70;;;2.13;;
47161;SDS011;32921;53.256;8.198;2023-08-06T14:10:43;4.25;;;2.40;;
47161;SDS011;32921;53.256;8.198;2023-08-06T14:13:09;4.70;;;2.10;;
47161;SDS011;32921;53.256;8.198;2023-08-06T14:15:35;5.10;;;2.20;;
47161;SDS011;32921;53.256;8.198;2023-08-06T14:18:00;4.55;;;2.45;;
47161;SDS011;32921;53.256;8.198;2023-08-06T14:20:27;6.75;;;2.70;;
47161;SDS011;32921;53.256;8.198;2023-08-06T14:22:53;6.80;;;2.47;;
47161;SDS011;32921;53.256;8.198;2023-08-06T14:25:18;5.82;;;2.58;;
47161;SDS011;32921;53.256;8.198;2023-08-06T14:27:44;6.60;;;2.65;;
47161;SDS011;32921;53.256;8.198;2023-08-06T14:30:09;5.07;;;2.58;;
47161;SDS011;32921;53.256;8.198;2023-08-06T14:32:35;6.57;;;2.53;;
47161;SDS011;32921;53.256;8.198;2023-08-06T14:35:01;7.10;;;3.03;;
47161;SDS011;32921;53.256;8.198;2023-08-06T14:37:26;6.45;;;2.50;;
47161;SDS011;32921;53.256;8.198;2023-08-06T14:39:52;6.55;;;2.70;;
47161;SDS011;32921;53.256;8.198;2023-08-06T14:42:17;5.82;;;2.70;;
47161;SDS011;32921;53.256;8.198;2023-08-06T14:44:43;8.00;;;2.75;;
47161;SDS011;32921;53.256;8.198;2023-08-06T14:47:09;9.30;;;2.88;;